createdAt,value
2023-04-18T00:00:50.830Z,0.00
2023-04-18T00:01:50.888Z,0.00
2023-04-18T00:02:50.964Z,0.00
2023-04-18T00:03:51.033Z,0.00
2023-04-18T00:04:50.899Z,0.00
2023-04-18T00:05:50.775Z,5.25
2023-04-18T00:06:50.772Z,23.91
2023-04-18T00:07:50.761Z,25.33
2023-04-18T00:08:50.759Z,26.80
2023-04-18T00:09:50.750Z,25.45
2023-04-18T00:10:50.775Z,25.64
2023-04-18T00:11:50.728Z,25.05
2023-04-18T00:12:50.721Z,25.00
2023-04-18T00:13:50.699Z,25.30
2023-04-18T00:14:50.709Z,25.00
2023-04-18T00:15:50.689Z,25.07
2023-04-18T00:16:50.694Z,25.00
2023-04-18T00:17:50.710Z,25.00
2023-04-18T00:18:50.718Z,25.26
2023-04-18T00:19:50.744Z,25.94
2023-04-18T00:20:50.760Z,26.42
2023-04-18T00:21:51.740Z,26.01
2023-04-18T00:22:50.812Z,25.00
2023-04-18T00:23:50.836Z,27.19
2023-04-18T00:24:50.859Z,25.00
2023-04-18T00:25:50.886Z,25.53
2023-04-18T00:26:51.275Z,25.00
2023-04-18T00:27:51.304Z,25.00
2023-04-18T00:28:51.305Z,28.85
2023-04-18T00:29:51.316Z,27.31
2023-04-18T00:30:51.457Z,28.02
2023-04-18T00:31:51.307Z,25.00
2023-04-18T00:32:51.380Z,25.00
2023-04-18T00:33:51.322Z,25.98
2023-04-18T00:34:51.318Z,25.00
2023-04-18T00:35:51.306Z,26.90
2023-04-18T00:36:51.321Z,25.45
2023-04-18T00:37:51.305Z,27.97
2023-04-18T00:38:51.309Z,25.00
2023-04-18T00:39:51.338Z,27.50
2023-04-18T00:40:51.750Z,26.66
2023-04-18T00:41:51.337Z,26.77
2023-04-18T00:42:52.378Z,26.44
2023-04-18T00:43:51.325Z,27.00
2023-04-18T00:44:51.335Z,27.23
2023-04-18T00:45:51.427Z,25.38
2023-04-18T00:46:51.492Z,27.09
2023-04-18T00:47:51.391Z,25.55
2023-04-18T00:48:51.407Z,28.63
2023-04-18T00:49:52.314Z,27.04
2023-04-18T00:50:51.449Z,26.35
2023-04-18T00:51:51.487Z,26.45
2023-04-18T00:52:51.488Z,27.77
2023-04-18T00:53:51.508Z,26.36
2023-04-18T00:54:51.540Z,27.34
2023-04-18T00:55:51.559Z,26.98
2023-04-18T00:56:51.599Z,26.67
2023-04-18T00:57:51.597Z,26.75
2023-04-18T00:58:51.659Z,26.61
2023-04-18T00:59:51.652Z,25.09
2023-04-18T01:00:51.662Z,27.67
2023-04-18T01:01:51.733Z,25.00
2023-04-18T01:02:51.773Z,26.21
2023-04-18T01:03:51.809Z,28.35
2023-04-18T01:04:51.753Z,25.24
2023-04-18T01:05:51.780Z,26.41
2023-04-18T01:06:51.793Z,26.36
2023-04-18T01:07:51.815Z,25.00
2023-04-18T01:08:51.866Z,27.65
2023-04-18T01:09:51.857Z,27.98
2023-04-18T01:10:51.868Z,27.40
2023-04-18T01:11:51.893Z,26.64
2023-04-18T01:12:51.927Z,27.59
2023-04-18T01:13:52.289Z,27.64
2023-04-18T01:14:52.361Z,27.68
2023-04-18T01:15:52.372Z,27.93
2023-04-18T01:16:52.337Z,26.85
2023-04-18T01:17:52.438Z,27.08
2023-04-18T01:18:52.365Z,27.66
2023-04-18T01:19:52.341Z,27.41
2023-04-18T01:20:52.372Z,28.27
2023-04-18T01:21:52.340Z,26.82
2023-04-18T01:22:52.355Z,27.18
2023-04-18T01:23:52.331Z,27.52
2023-04-18T01:24:52.338Z,27.72
2023-04-18T01:25:52.344Z,27.98
2023-04-18T01:26:52.334Z,26.35
2023-04-18T01:27:52.341Z,28.34
2023-04-18T01:28:52.336Z,26.93
2023-04-18T01:29:52.342Z,27.73
2023-04-18T01:30:52.408Z,27.82
2023-04-18T01:31:52.335Z,26.98
2023-04-18T01:32:52.355Z,27.98
2023-04-18T01:33:52.341Z,27.56
2023-04-18T01:34:52.344Z,25.29
2023-04-18T01:35:52.344Z,26.95
2023-04-18T01:36:52.346Z,26.80
2023-04-18T01:37:52.351Z,27.35
2023-04-18T01:38:52.359Z,27.20
2023-04-18T01:39:52.374Z,27.41
2023-04-18T01:40:52.392Z,27.41
2023-04-18T01:41:52.430Z,28.10
2023-04-18T01:42:52.434Z,29.78
2023-04-18T01:43:52.456Z,26.35
2023-04-18T01:44:52.469Z,28.11
2023-04-18T01:45:52.485Z,25.76
2023-04-18T01:46:52.550Z,27.75
2023-04-18T01:47:52.550Z,27.32
2023-04-18T01:48:52.542Z,26.53
2023-04-18T01:49:52.549Z,27.14
2023-04-18T01:50:52.563Z,26.30
2023-04-18T01:51:52.579Z,26.85
2023-04-18T01:52:52.618Z,26.19
2023-04-18T01:53:52.633Z,27.49
2023-04-18T01:54:52.638Z,27.92
2023-04-18T01:55:52.654Z,26.41
2023-04-18T01:56:52.676Z,26.31
2023-04-18T01:57:52.699Z,26.49
2023-04-18T01:58:52.717Z,25.37
2023-04-18T01:59:52.740Z,26.37
2023-04-18T02:00:52.882Z,26.05
2023-04-18T02:01:52.890Z,25.38
2023-04-18T02:02:53.045Z,28.26
2023-04-18T02:03:53.106Z,27.00
2023-04-18T02:04:52.834Z,28.07
2023-04-18T02:05:52.860Z,25.72
2023-04-18T02:06:52.874Z,26.62
2023-04-18T02:07:52.880Z,26.92
2023-04-18T02:08:52.897Z,27.97
2023-04-18T02:09:52.928Z,27.82
2023-04-18T02:10:52.931Z,27.64
2023-04-18T02:11:52.950Z,27.37
2023-04-18T02:12:52.968Z,27.93
2023-04-18T02:13:52.991Z,26.23
2023-04-18T02:14:53.038Z,27.93
2023-04-18T02:15:53.026Z,28.70
2023-04-18T02:16:53.122Z,28.46
2023-04-18T02:17:53.162Z,27.20
2023-04-18T02:18:53.109Z,26.58
2023-04-18T02:19:53.108Z,28.84
2023-04-18T02:20:53.125Z,28.46
2023-04-18T02:21:53.137Z,25.88
2023-04-18T02:22:53.159Z,27.19
2023-04-18T02:23:53.171Z,28.87
2023-04-18T02:24:53.179Z,25.92
2023-04-18T02:25:53.192Z,27.11
2023-04-18T02:26:53.215Z,28.12
2023-04-18T02:27:53.236Z,26.94
2023-04-18T02:28:53.266Z,27.09
2023-04-18T02:29:53.286Z,28.27
2023-04-18T02:30:53.304Z,26.54
2023-04-18T02:31:53.330Z,27.02
2023-04-18T02:32:53.418Z,25.38
2023-04-18T02:33:53.367Z,26.33
2023-04-18T02:34:53.430Z,26.17
2023-04-18T02:35:53.415Z,26.54
2023-04-18T02:36:53.434Z,25.64
2023-04-18T02:37:53.451Z,25.39
2023-04-18T02:38:53.467Z,29.58
2023-04-18T02:39:53.480Z,26.85
2023-04-18T02:40:53.513Z,27.62
2023-04-18T02:41:54.308Z,27.16
2023-04-18T02:42:53.549Z,27.45
2023-04-18T02:43:53.560Z,25.58
2023-04-18T02:44:53.604Z,28.23
2023-04-18T02:45:53.641Z,26.40
2023-04-18T02:46:53.609Z,28.39
2023-04-18T02:47:55.980Z,27.95
2023-04-18T02:48:54.305Z,29.83
2023-04-18T02:49:53.625Z,30.50
2023-04-18T02:50:53.659Z,27.92
2023-04-18T02:51:53.603Z,27.75
2023-04-18T02:52:53.616Z,28.26
2023-04-18T02:53:53.579Z,28.92
2023-04-18T02:54:53.582Z,27.90
2023-04-18T02:55:53.565Z,28.88
2023-04-18T02:56:54.309Z,28.20
2023-04-18T02:57:53.572Z,26.72
2023-04-18T02:58:53.530Z,28.55
2023-04-18T02:59:53.527Z,28.53
2023-04-18T03:00:53.614Z,26.50
2023-04-18T03:01:53.519Z,26.99
2023-04-18T03:02:53.930Z,26.92
2023-04-18T03:03:53.501Z,29.15
2023-04-18T03:04:53.527Z,27.78
2023-04-18T03:05:53.471Z,26.82
2023-04-18T03:06:53.473Z,25.73
2023-04-18T03:07:53.454Z,27.38
2023-04-18T03:08:53.431Z,26.46
2023-04-18T03:09:53.420Z,29.00
2023-04-18T03:10:55.103Z,28.41
2023-04-18T03:11:53.413Z,32.04
2023-04-18T03:12:53.384Z,29.75
2023-04-18T03:13:53.374Z,29.64
2023-04-18T03:14:53.364Z,28.91
2023-04-18T03:15:53.379Z,27.93
2023-04-18T03:16:55.384Z,27.91
2023-04-18T03:17:53.413Z,28.14
2023-04-18T03:18:53.399Z,28.11
2023-04-18T03:19:53.322Z,28.01
2023-04-18T03:20:53.329Z,28.29
2023-04-18T03:21:53.344Z,27.63
2023-04-18T03:22:53.362Z,25.23
2023-04-18T03:23:53.288Z,26.49
2023-04-18T03:24:53.275Z,27.44
2023-04-18T03:25:53.255Z,28.10
2023-04-18T03:26:53.254Z,29.41
2023-04-18T03:27:53.242Z,29.12
2023-04-18T03:28:53.233Z,27.82
2023-04-18T03:29:53.226Z,27.48
2023-04-18T03:30:53.240Z,26.65
2023-04-18T03:31:53.216Z,26.08
2023-04-18T03:32:53.261Z,28.86
2023-04-18T03:33:53.188Z,28.92
2023-04-18T03:34:53.184Z,26.17
2023-04-18T03:35:53.165Z,28.62
2023-04-18T03:36:53.155Z,27.22
2023-04-18T03:37:53.154Z,27.50
2023-04-18T03:38:53.162Z,27.35
2023-04-18T03:39:53.156Z,28.39
2023-04-18T03:40:53.182Z,27.57
2023-04-18T03:41:53.176Z,27.56
2023-04-18T03:42:53.202Z,27.65
2023-04-18T03:43:53.223Z,28.73
2023-04-18T03:44:53.218Z,26.71
2023-04-18T03:45:53.281Z,26.15
2023-04-18T03:46:53.261Z,26.94
2023-04-18T03:47:53.309Z,26.01
2023-04-18T03:48:53.273Z,28.91
2023-04-18T03:49:53.295Z,29.46
2023-04-18T03:50:53.305Z,25.37
2023-04-18T03:51:53.320Z,25.10
2023-04-18T03:52:53.340Z,29.18
2023-04-18T03:53:53.353Z,27.03
2023-04-18T03:54:53.412Z,25.82
2023-04-18T03:55:53.404Z,26.49
2023-04-18T03:56:53.421Z,26.58
2023-04-18T03:57:53.448Z,27.17
2023-04-18T03:58:53.463Z,27.90
2023-04-18T03:59:53.484Z,27.81
2023-04-18T04:00:53.491Z,27.48
2023-04-18T04:01:53.613Z,26.33
2023-04-18T04:02:53.690Z,25.59
2023-04-18T04:03:53.674Z,27.46
2023-04-18T04:04:53.641Z,28.56
2023-04-18T04:05:53.614Z,27.31
2023-04-18T04:06:53.629Z,28.17
2023-04-18T04:07:53.643Z,26.96
2023-04-18T04:08:53.767Z,25.00
2023-04-18T04:09:53.677Z,28.12
2023-04-18T04:10:53.896Z,25.36
2023-04-18T04:11:53.715Z,27.22
2023-04-18T04:12:53.735Z,27.17
2023-04-18T04:13:53.816Z,26.30
2023-04-18T04:14:53.815Z,27.46
2023-04-18T04:15:53.806Z,28.82
2023-04-18T04:16:53.820Z,25.53
2023-04-18T04:17:53.856Z,25.92
2023-04-18T04:18:53.856Z,26.61
2023-04-18T04:19:53.866Z,27.35
2023-04-18T04:20:53.873Z,25.87
2023-04-18T04:21:53.889Z,27.69
2023-04-18T04:22:53.939Z,27.62
2023-04-18T04:23:53.941Z,27.69
2023-04-18T04:24:53.944Z,27.74
2023-04-18T04:25:53.962Z,27.61
2023-04-18T04:26:53.998Z,26.64
2023-04-18T04:27:53.988Z,25.80
2023-04-18T04:28:54.018Z,28.86
2023-04-18T04:29:54.038Z,28.00
2023-04-18T04:30:54.055Z,26.09
2023-04-18T04:31:54.169Z,27.96
2023-04-18T04:32:54.152Z,27.85
2023-04-18T04:33:54.120Z,26.89
2023-04-18T04:34:54.160Z,29.09
2023-04-18T04:35:54.149Z,27.55
2023-04-18T04:36:54.168Z,26.35
2023-04-18T04:37:54.197Z,27.77
2023-04-18T04:38:54.209Z,27.05
2023-04-18T04:39:54.251Z,29.38
2023-04-18T04:40:54.263Z,29.14
2023-04-18T04:41:54.293Z,26.76
2023-04-18T04:42:54.328Z,26.70
2023-04-18T04:43:54.314Z,27.69
2023-04-18T04:44:54.382Z,28.69
2023-04-18T04:45:54.366Z,28.27
2023-04-18T04:46:54.397Z,28.86
2023-04-18T04:47:54.436Z,27.95
2023-04-18T04:48:54.430Z,28.99
2023-04-18T04:49:54.462Z,27.26
2023-04-18T04:51:54.344Z,29.95
2023-04-18T04:52:54.484Z,29.51
2023-04-18T04:53:54.511Z,28.14
2023-04-18T04:54:54.535Z,28.06
2023-04-18T04:55:54.536Z,26.65
2023-04-18T04:56:54.543Z,27.23
2023-04-18T04:57:54.556Z,26.87
2023-04-18T04:58:54.616Z,28.93
2023-04-18T04:59:54.598Z,27.64
2023-04-18T05:00:54.626Z,29.15
2023-04-18T05:01:54.653Z,27.72
2023-04-18T05:02:54.705Z,29.19
2023-04-18T05:03:54.725Z,27.93
2023-04-18T05:04:54.679Z,27.16
2023-04-18T05:05:54.698Z,28.78
2023-04-18T05:06:54.705Z,28.43
2023-04-18T05:07:54.731Z,28.87
2023-04-18T05:08:54.744Z,27.59
2023-04-18T05:09:54.767Z,29.86
2023-04-18T05:10:54.789Z,30.05
2023-04-18T05:11:54.806Z,28.06
2023-04-18T05:12:54.831Z,27.29
2023-04-18T05:13:54.863Z,27.16
2023-04-18T05:14:54.885Z,27.60
2023-04-18T05:15:55.849Z,28.17
2023-04-18T05:16:54.947Z,26.95
2023-04-18T05:17:55.368Z,27.58
2023-04-18T05:18:54.947Z,30.35
2023-04-18T05:19:55.858Z,28.20
2023-04-18T05:20:54.996Z,28.42
2023-04-18T05:21:54.997Z,30.24
2023-04-18T05:22:55.030Z,28.34
2023-04-18T05:23:55.026Z,28.63
2023-04-18T05:24:55.352Z,29.28
2023-04-18T05:25:55.073Z,29.15
2023-04-18T05:26:55.864Z,29.71
2023-04-18T05:27:55.123Z,29.91
2023-04-18T05:28:55.154Z,29.33
2023-04-18T05:29:55.165Z,29.10
2023-04-18T05:30:55.459Z,31.06
2023-04-18T05:31:55.864Z,28.94
2023-04-18T05:32:55.235Z,28.67
2023-04-18T05:33:55.251Z,30.54
2023-04-18T05:34:55.246Z,29.75
2023-04-18T05:35:55.273Z,29.58
2023-04-18T05:36:55.286Z,29.67
2023-04-18T05:37:55.378Z,28.78
2023-04-18T05:38:55.321Z,29.26
2023-04-18T05:39:55.370Z,29.33
2023-04-18T05:40:55.354Z,29.91
2023-04-18T05:41:55.384Z,28.56
2023-04-18T05:42:55.384Z,31.13
2023-04-18T05:44:04.750Z,29.04
2023-04-18T05:44:55.396Z,29.45
2023-04-18T05:45:57.618Z,29.68
2023-04-18T05:46:55.371Z,29.44
2023-04-18T05:47:55.449Z,30.28
2023-04-18T05:48:55.371Z,30.55
2023-04-18T05:49:55.377Z,30.79
2023-04-18T05:50:55.294Z,30.62
2023-04-18T05:51:55.287Z,31.03
2023-04-18T05:52:55.289Z,33.69
2023-04-18T05:53:56.460Z,29.79
2023-04-18T05:54:55.254Z,32.47
2023-04-18T05:55:55.245Z,32.25
2023-04-18T05:56:55.265Z,33.22
2023-04-18T05:57:55.464Z,31.72
2023-04-18T05:58:55.403Z,31.36
2023-04-18T05:59:55.379Z,31.73
2023-04-18T06:00:55.209Z,32.54
2023-04-18T06:01:55.248Z,31.53
2023-04-18T06:02:56.095Z,31.71
2023-04-18T06:03:55.428Z,31.01
2023-04-18T06:04:55.964Z,32.18
2023-04-18T06:05:55.280Z,32.50
2023-04-18T06:06:55.206Z,31.94
2023-04-18T06:07:55.391Z,32.49
2023-04-18T06:08:55.256Z,32.32
2023-04-18T06:09:55.904Z,31.31
2023-04-18T06:10:55.880Z,32.75
2023-04-18T06:11:55.496Z,30.75
2023-04-18T06:12:55.507Z,30.61
2023-04-18T06:13:55.907Z,33.94
2023-04-18T06:14:56.403Z,33.21
2023-04-18T06:15:55.894Z,32.24
2023-04-18T06:16:56.769Z,32.71
2023-04-18T06:17:56.103Z,31.19
2023-04-18T06:18:56.209Z,31.80
2023-04-18T06:19:56.249Z,31.25
2023-04-18T06:20:56.009Z,29.91
2023-04-18T06:21:55.992Z,32.77
2023-04-18T06:22:56.009Z,33.88
2023-04-18T06:23:56.383Z,33.15
2023-04-18T06:24:56.155Z,31.93
2023-04-18T06:25:56.231Z,34.10
2023-04-18T06:26:56.896Z,32.63
2023-04-18T06:27:55.911Z,33.40
2023-04-18T06:28:56.066Z,34.61
2023-04-18T06:29:56.399Z,34.85
2023-04-18T06:30:56.035Z,32.70
2023-04-18T06:31:56.835Z,35.39
2023-04-18T06:32:56.130Z,34.47
2023-04-18T06:33:56.110Z,33.78
2023-04-18T06:34:55.951Z,34.61
2023-04-18T06:35:55.701Z,34.71
2023-04-18T06:36:55.705Z,35.11
2023-04-18T06:37:55.723Z,36.98
2023-04-18T06:38:55.892Z,33.90
2023-04-18T06:39:55.741Z,33.92
2023-04-18T06:40:55.746Z,34.10
2023-04-18T06:41:55.770Z,34.94
2023-04-18T06:42:55.772Z,35.90
2023-04-18T06:44:03.578Z,35.74
2023-04-18T06:44:55.838Z,36.03
2023-04-18T06:45:55.844Z,37.00
2023-04-18T06:46:55.781Z,37.01
2023-04-18T06:47:55.763Z,36.72
2023-04-18T06:48:55.723Z,37.67
2023-04-18T06:49:55.707Z,37.78
2023-04-18T06:50:55.715Z,36.81
2023-04-18T06:51:55.689Z,37.77
2023-04-18T06:52:55.902Z,36.38
2023-04-18T06:53:55.694Z,37.91
2023-04-18T06:54:55.896Z,38.59
2023-04-18T06:55:55.643Z,35.07
2023-04-18T06:56:55.813Z,39.47
2023-04-18T06:57:55.621Z,37.02
2023-04-18T06:58:55.898Z,36.44
2023-04-18T06:59:55.621Z,37.27
2023-04-18T07:00:55.962Z,38.29
2023-04-18T07:01:55.622Z,38.49
2023-04-18T07:02:55.678Z,40.01
2023-04-18T07:03:56.004Z,38.69
2023-04-18T07:04:56.403Z,38.35
2023-04-18T07:05:55.569Z,39.35
2023-04-18T07:06:55.608Z,38.85
2023-04-18T07:07:55.534Z,39.95
2023-04-18T07:08:56.899Z,38.19
2023-04-18T07:09:58.396Z,40.17
2023-04-18T07:10:56.491Z,46.33
2023-04-18T07:11:55.489Z,45.54
2023-04-18T07:12:55.490Z,42.59
2023-04-18T07:13:55.900Z,41.13
2023-04-18T07:14:55.465Z,41.02
2023-04-18T07:15:55.479Z,40.82
2023-04-18T07:16:56.419Z,41.17
2023-04-18T07:17:55.460Z,41.11
2023-04-18T07:18:55.416Z,40.93
2023-04-18T07:19:55.404Z,40.19
2023-04-18T07:20:55.383Z,39.95
2023-04-18T07:21:55.382Z,42.12
2023-04-18T07:22:55.398Z,40.92
2023-04-18T07:23:55.442Z,43.66
2023-04-18T07:24:55.424Z,40.89
2023-04-18T07:25:55.334Z,42.05
2023-04-18T07:26:55.396Z,42.70
2023-04-18T07:27:55.405Z,41.99
2023-04-18T07:28:55.416Z,43.02
2023-04-18T07:29:55.312Z,42.03
2023-04-18T07:30:55.325Z,43.48
2023-04-18T07:31:55.286Z,43.28
2023-04-18T07:32:55.301Z,43.51
2023-04-18T07:33:55.931Z,43.22
2023-04-18T07:34:55.543Z,44.63
2023-04-18T07:35:55.902Z,45.17
2023-04-18T07:36:55.937Z,45.83
2023-04-18T07:37:55.544Z,45.35
2023-04-18T07:38:56.050Z,46.56
2023-04-18T07:39:55.576Z,47.02
2023-04-18T07:40:55.577Z,46.55
2023-04-18T07:41:55.630Z,46.45
2023-04-18T07:42:55.545Z,46.26
2023-04-18T07:43:55.922Z,46.11
2023-04-18T07:44:55.553Z,46.83
2023-04-18T07:45:55.590Z,45.86
2023-04-18T07:46:55.566Z,46.82
2023-04-18T07:47:55.597Z,47.71
2023-04-18T07:48:55.932Z,47.04
2023-04-18T07:49:55.555Z,46.92
2023-04-18T07:50:55.425Z,47.24
2023-04-18T07:51:55.380Z,46.71
2023-04-18T07:52:55.380Z,45.45
2023-04-18T07:53:55.386Z,46.76
2023-04-18T07:54:56.026Z,47.84
2023-04-18T07:55:55.432Z,48.25
2023-04-18T07:56:55.411Z,47.46
2023-04-18T07:57:55.409Z,48.54
2023-04-18T07:58:55.408Z,47.60
2023-04-18T07:59:55.427Z,48.38
2023-04-18T08:00:55.923Z,48.62
2023-04-18T08:01:55.459Z,49.25
2023-04-18T08:02:55.601Z,47.30
2023-04-18T08:03:55.572Z,49.44
2023-04-18T08:04:56.804Z,47.56
2023-04-18T08:05:56.565Z,48.16
2023-04-18T08:06:55.489Z,49.65
2023-04-18T08:07:55.482Z,51.69
2023-04-18T08:08:55.918Z,49.34
2023-04-18T08:09:55.499Z,51.16
2023-04-18T08:10:55.718Z,51.36
2023-04-18T08:11:55.514Z,52.35
2023-04-18T08:12:55.500Z,50.05
2023-04-18T08:13:55.933Z,50.81
2023-04-18T08:14:55.504Z,50.37
2023-04-18T08:15:56.039Z,51.00
2023-04-18T08:16:55.503Z,51.07
2023-04-18T08:17:55.538Z,50.42
2023-04-18T08:18:55.498Z,50.47
2023-04-18T08:19:55.926Z,52.01
2023-04-18T08:20:55.494Z,52.73
2023-04-18T08:21:55.631Z,52.46
2023-04-18T08:23:54.452Z,54.12
2023-04-18T08:25:04.407Z,54.35
2023-04-18T08:25:55.428Z,54.36
2023-04-18T08:26:55.503Z,54.94
2023-04-18T08:27:55.462Z,54.80
2023-04-18T08:28:55.377Z,55.53
2023-04-18T08:29:55.945Z,55.67
2023-04-18T08:30:55.412Z,57.66
2023-04-18T08:31:55.366Z,56.36
2023-04-18T08:32:55.368Z,58.43
2023-04-18T08:33:55.304Z,57.61
2023-04-18T08:34:55.438Z,56.76
2023-04-18T08:35:55.267Z,57.52
2023-04-18T08:36:55.254Z,57.56
2023-04-18T08:37:55.245Z,57.71
2023-04-18T08:38:55.224Z,57.58
2023-04-18T08:39:55.437Z,56.62
2023-04-18T08:40:55.198Z,56.42
2023-04-18T08:41:55.188Z,56.73
2023-04-18T08:42:55.259Z,56.81
2023-04-18T08:43:57.056Z,55.83
2023-04-18T08:44:55.438Z,56.00
2023-04-18T08:45:55.217Z,56.61
2023-04-18T08:46:55.119Z,57.37
2023-04-18T08:47:55.151Z,57.18
2023-04-18T08:48:55.095Z,58.37
2023-04-18T08:49:55.444Z,59.90
2023-04-18T08:50:55.059Z,60.01
2023-04-18T08:51:55.049Z,59.95
2023-04-18T08:52:55.035Z,59.23
2023-04-18T08:53:55.470Z,59.45
2023-04-18T08:54:55.016Z,60.94
2023-04-18T08:55:55.090Z,58.33
2023-04-18T08:56:54.975Z,58.47
2023-04-18T08:57:54.955Z,58.60
2023-04-18T08:58:55.490Z,56.80
2023-04-18T08:59:57.618Z,57.65
2023-04-18T09:00:54.963Z,57.87
2023-04-18T09:01:54.886Z,58.39
2023-04-18T09:02:55.136Z,59.21
2023-04-18T09:03:54.894Z,60.55
2023-04-18T09:04:54.821Z,61.57
2023-04-18T09:05:54.808Z,61.88
2023-04-18T09:06:55.445Z,60.64
2023-04-18T09:07:54.945Z,61.48
2023-04-18T09:08:54.767Z,60.12
2023-04-18T09:09:54.807Z,61.05
2023-04-18T09:10:57.599Z,59.57
2023-04-18T09:11:54.740Z,59.73
2023-04-18T09:12:54.961Z,60.21
2023-04-18T09:13:57.626Z,60.72
2023-04-18T09:14:54.671Z,59.88
2023-04-18T09:15:54.655Z,60.47
2023-04-18T09:16:54.676Z,61.25
2023-04-18T09:17:56.717Z,62.19
2023-04-18T09:18:58.033Z,59.88
2023-04-18T09:19:54.584Z,60.15
2023-04-18T09:20:54.573Z,61.13
2023-04-18T09:21:55.452Z,62.02
2023-04-18T09:22:54.553Z,63.78
2023-04-18T09:23:54.523Z,66.96
2023-04-18T09:24:54.521Z,65.32
2023-04-18T09:25:54.964Z,64.74
2023-04-18T09:26:54.952Z,64.31
2023-04-18T09:27:54.503Z,65.00
2023-04-18T09:28:54.440Z,64.44
2023-04-18T09:29:56.553Z,64.83
2023-04-18T09:30:54.454Z,65.12
2023-04-18T09:31:55.964Z,65.55
2023-04-18T09:32:54.976Z,67.22
2023-04-18T09:33:54.582Z,67.17
2023-04-18T09:34:54.508Z,67.39
2023-04-18T09:35:54.534Z,64.73
2023-04-18T09:36:55.003Z,64.81
2023-04-18T09:37:54.576Z,65.58
2023-04-18T09:38:56.555Z,66.09
2023-04-18T09:39:54.570Z,68.01
2023-04-18T09:40:54.964Z,65.65
2023-04-18T09:41:54.533Z,67.82
2023-04-18T09:42:54.530Z,66.24
2023-04-18T09:43:55.458Z,66.40
2023-04-18T09:44:56.833Z,68.19
2023-04-18T09:45:55.020Z,70.41
2023-04-18T09:46:54.454Z,73.46
2023-04-18T09:47:54.543Z,68.99
2023-04-18T09:48:54.417Z,66.05
2023-04-18T09:49:54.961Z,65.43
2023-04-18T09:50:54.402Z,63.68
2023-04-18T09:51:54.474Z,65.39
2023-04-18T09:52:54.350Z,65.36
2023-04-18T09:53:54.366Z,64.26
2023-04-18T09:54:54.318Z,63.77
2023-04-18T09:55:57.542Z,64.34
2023-04-18T09:56:54.287Z,64.58
2023-04-18T09:57:54.278Z,64.73
2023-04-18T09:58:54.260Z,64.39
2023-04-18T09:59:54.257Z,64.92
2023-04-18T10:00:54.470Z,63.91
2023-04-18T10:01:54.413Z,63.74
2023-04-18T10:02:55.046Z,64.07
2023-04-18T10:03:55.076Z,63.92
2023-04-18T10:04:54.306Z,64.48
2023-04-18T10:05:57.174Z,61.01
2023-04-18T10:06:54.134Z,61.32
2023-04-18T10:07:54.354Z,61.46
2023-04-18T10:08:54.974Z,61.68
2023-04-18T10:09:56.971Z,62.65
2023-04-18T10:10:54.470Z,61.29
2023-04-18T10:11:54.049Z,61.83
2023-04-18T10:12:54.060Z,62.43
2023-04-18T10:13:54.031Z,63.77
2023-04-18T10:14:54.468Z,63.63
2023-04-18T10:15:54.029Z,64.83
2023-04-18T10:16:53.983Z,64.46
2023-04-18T10:18:03.476Z,65.67
2023-04-18T10:18:53.977Z,66.05
2023-04-18T10:19:54.014Z,66.67
2023-04-18T10:20:53.960Z,65.98
2023-04-18T10:21:53.929Z,66.47
2023-04-18T10:22:54.001Z,65.95
2023-04-18T10:23:53.917Z,66.83
2023-04-18T10:24:54.127Z,63.80
2023-04-18T10:25:53.891Z,63.18
2023-04-18T10:26:53.983Z,64.99
2023-04-18T10:27:53.842Z,65.71
2023-04-18T10:28:54.088Z,66.05
2023-04-18T10:29:53.855Z,67.57
2023-04-18T10:30:53.820Z,66.65
2023-04-18T10:31:54.099Z,67.75
2023-04-18T10:32:53.878Z,67.98
2023-04-18T10:34:04.007Z,67.43
2023-04-18T10:34:53.794Z,67.81
2023-04-18T10:35:53.784Z,68.71
2023-04-18T10:36:53.997Z,68.40
2023-04-18T10:37:54.052Z,69.84
2023-04-18T10:38:53.721Z,69.74
2023-04-18T10:39:53.700Z,68.96
2023-04-18T10:40:53.890Z,67.43
2023-04-18T10:41:54.071Z,68.84
2023-04-18T10:42:53.991Z,67.86
2023-04-18T10:43:53.657Z,68.86
2023-04-18T10:44:53.655Z,69.95
2023-04-18T10:45:53.778Z,69.39
2023-04-18T10:46:53.681Z,69.11
2023-04-18T10:47:54.025Z,68.64
2023-04-18T10:48:53.601Z,68.20
2023-04-18T10:49:54.151Z,69.37
2023-04-18T10:50:53.571Z,70.79
2023-04-18T10:51:53.999Z,70.18
2023-04-18T10:52:53.538Z,69.52
2023-04-18T10:53:53.531Z,68.45
2023-04-18T10:54:53.537Z,68.64
2023-04-18T10:55:54.014Z,68.61
2023-04-18T10:56:53.803Z,67.91
2023-04-18T10:57:53.486Z,69.50
2023-04-18T10:58:54.060Z,70.88
2023-04-18T10:59:53.457Z,69.91
2023-04-18T11:00:53.518Z,68.75
2023-04-18T11:01:54.043Z,69.19
2023-04-18T11:02:53.808Z,69.11
2023-04-18T11:03:53.983Z,68.09
2023-04-18T11:04:53.620Z,68.24
2023-04-18T11:05:53.793Z,67.18
2023-04-18T11:06:53.992Z,66.73
2023-04-18T11:07:53.727Z,68.17
2023-04-18T11:08:53.765Z,69.81
2023-04-18T11:09:54.008Z,69.14
2023-04-18T11:10:54.989Z,69.16
2023-04-18T11:11:53.992Z,70.17
2023-04-18T11:12:53.970Z,69.96
2023-04-18T11:13:53.998Z,69.84
2023-04-18T11:14:54.044Z,71.38
2023-04-18T11:15:54.093Z,72.31
2023-04-18T11:16:54.780Z,71.37
2023-04-18T11:17:55.046Z,72.55
2023-04-18T11:18:54.229Z,71.52
2023-04-18T11:19:54.695Z,70.77
2023-04-18T11:20:54.311Z,69.29
2023-04-18T11:21:54.689Z,70.86
2023-04-18T11:22:54.427Z,71.54
2023-04-18T11:23:57.008Z,72.70
2023-04-18T11:24:54.445Z,75.40
2023-04-18T11:25:54.448Z,73.23
2023-04-18T11:26:54.501Z,72.60
2023-04-18T11:28:09.071Z,75.42
2023-04-18T11:28:54.391Z,76.33
2023-04-18T11:29:54.380Z,77.25
2023-04-18T11:30:54.371Z,77.55
2023-04-18T11:31:57.708Z,77.84
2023-04-18T11:32:54.534Z,75.89
2023-04-18T11:33:54.342Z,76.04
2023-04-18T11:34:54.312Z,76.41
2023-04-18T11:35:54.320Z,75.82
2023-04-18T11:36:55.044Z,74.30
2023-04-18T11:37:55.038Z,72.10
2023-04-18T11:38:54.475Z,71.56
2023-04-18T11:39:54.623Z,73.89
2023-04-18T11:40:54.511Z,72.41
2023-04-18T11:41:55.007Z,70.84
2023-04-18T11:42:55.003Z,72.13
2023-04-18T11:43:55.010Z,68.65
2023-04-18T11:44:54.668Z,69.38
2023-04-18T11:45:57.742Z,68.60
2023-04-18T11:46:55.501Z,68.73
2023-04-18T11:47:54.728Z,69.38
2023-04-18T11:48:54.684Z,69.76
2023-04-18T11:49:56.975Z,69.12
2023-04-18T11:50:54.650Z,68.81
2023-04-18T11:51:55.011Z,69.25
2023-04-18T11:52:54.631Z,70.27
2023-04-18T11:53:54.723Z,71.33
2023-04-18T11:54:57.695Z,72.16
2023-04-18T11:55:57.698Z,68.93
2023-04-18T11:56:55.022Z,69.06
2023-04-18T11:57:54.566Z,70.02
2023-04-18T11:58:57.704Z,71.20
2023-04-18T11:59:54.540Z,69.10
2023-04-18T12:00:54.706Z,69.90
2023-04-18T12:01:58.436Z,71.50
2023-04-18T12:02:54.811Z,69.26
2023-04-18T12:03:57.337Z,70.01
2023-04-18T12:04:55.266Z,69.00
2023-04-18T12:05:54.827Z,70.12
2023-04-18T12:06:55.017Z,71.63
2023-04-18T12:07:54.702Z,70.74
2023-04-18T12:08:54.705Z,74.51
2023-04-18T12:09:54.730Z,74.20
2023-04-18T12:10:54.703Z,71.80
2023-04-18T12:11:55.016Z,72.80
2023-04-18T12:12:54.696Z,74.09
2023-04-18T12:13:55.182Z,72.23
2023-04-18T12:14:54.305Z,72.16
2023-04-18T12:15:54.306Z,72.46
2023-04-18T12:16:55.018Z,75.05
2023-04-18T12:17:55.039Z,74.04
2023-04-18T12:18:55.024Z,73.69
2023-04-18T12:19:54.436Z,74.23
2023-04-18T12:20:54.515Z,73.69
2023-04-18T12:21:54.481Z,71.01
2023-04-18T12:22:54.521Z,70.53
2023-04-18T12:23:55.017Z,72.19
2023-04-18T12:24:55.356Z,71.67
2023-04-18T12:25:54.736Z,71.20
2023-04-18T12:26:55.524Z,74.24
2023-04-18T12:27:54.706Z,76.89
2023-04-18T12:28:55.527Z,75.19
2023-04-18T12:29:54.740Z,73.35
2023-04-18T12:30:54.768Z,76.51
2023-04-18T12:31:55.184Z,73.72
2023-04-18T12:32:55.049Z,75.14
2023-04-18T12:33:54.864Z,76.13
2023-04-18T12:34:54.851Z,75.50
2023-04-18T12:35:54.877Z,74.49
2023-04-18T12:36:54.966Z,74.50
2023-04-18T12:37:55.033Z,74.37
2023-04-18T12:38:54.924Z,73.29
2023-04-18T12:39:54.936Z,73.83
2023-04-18T12:40:54.972Z,73.10
2023-04-18T12:41:55.125Z,75.67
2023-04-18T12:42:55.028Z,71.18
2023-04-18T12:43:55.072Z,71.71
2023-04-18T12:44:55.090Z,73.07
2023-04-18T12:45:55.116Z,74.20
2023-04-18T12:46:55.754Z,72.80
2023-04-18T12:47:55.831Z,73.15
2023-04-18T12:48:55.724Z,72.39
2023-04-18T12:49:55.171Z,73.05
2023-04-18T12:50:55.181Z,70.97
2023-04-18T12:51:55.214Z,71.66
2023-04-18T12:52:55.219Z,72.34
2023-04-18T12:53:55.737Z,73.79
2023-04-18T12:54:55.271Z,72.57